sensor_id;sensor_type;location;lat;lon;timestamp;pressure;altitude;pressure_sealevel;temperature;humidity
39699;BME280;25372;50.582;12.250;2023-08-30T00:08:15;98996.53;;;12.14;100.00
39699;BME280;25372;50.582;12.250;2023-08-30T00:18:39;99006.84;;;12.27;100.00
39699;BME280;25372;50.582;12.250;2023-08-30T00:29:00;99000.38;;;12.31;100.00
39699;BME280;25372;50.582;12.250;2023-08-30T00:39:24;99005.09;;;12.37;100.00
39699;BME280;25372;50.582;12.250;2023-08-30T00:49:45;99015.56;;;12.49;100.00
39699;BME280;25372;50.582;12.250;2023-08-30T01:00:09;99019.47;;;12.54;100.00
39699;BME280;25372;50.582;12.250;2023-08-30T01:10:41;99015.47;;;12.60;100.00
39699;BME280;25372;50.582;12.250;2023-08-30T01:21:12;99011.75;;;12.63;100.00
39699;BME280;25372;50.582;12.250;2023-08-30T01:31:38;98996.41;;;12.68;100.00
39699;BME280;25372;50.582;12.250;2023-08-30T01:42:01;99007.72;;;12.58;100.00
39699;BME280;25372;50.582;12.250;2023-08-30T01:52:25;98988.72;;;12.55;100.00
39699;BME280;25372;50.582;12.250;2023-08-30T02:02:47;98973.81;;;12.65;100.00
39699;BME280;25372;50.582;12.250;2023-08-30T02:13:10;98974.72;;;12.54;100.00
39699;BME280;25372;50.582;12.250;2023-08-30T02:23:32;98971.28;;;12.64;100.00
39699;BME280;25372;50.582;12.250;2023-08-30T02:33:54;99005.19;;;12.47;100.00
39699;BME280;25372;50.582;12.250;2023-08-30T02:44:15;99002.00;;;12.53;100.00
39699;BME280;25372;50.582;12.250;2023-08-30T02:54:37;98994.28;;;12.62;100.00
39699;BME280;25372;50.582;12.250;2023-08-30T03:04:58;98992.59;;;12.51;100.00
39699;BME280;25372;50.582;12.250;2023-08-30T03:15:21;98997.31;;;12.57;100.00
39699;BME280;25372;50.582;12.250;2023-08-30T03:25:41;99010.88;;;12.52;99.27
39699;BME280;25372;50.582;12.250;2023-08-30T03:36:04;98996.91;;;12.52;100.00
39699;BME280;25372;50.582;12.250;2023-08-30T03:46:25;99002.94;;;12.42;100.00
39699;BME280;25372;50.582;12.250;2023-08-30T03:56:47;98992.78;;;12.38;100.00
39699;BME280;25372;50.582;12.250;2023-08-30T04:07:08;98997.91;;;12.61;100.00
39699;BME280;25372;50.582;12.250;2023-08-30T04:17:30;98999.25;;;12.55;100.00
39699;BME280;25372;50.582;12.250;2023-08-30T04:27:51;98987.44;;;12.49;100.00
39699;BME280;25372;50.582;12.250;2023-08-30T04:38:14;98996.31;;;12.48;100.00
39699;BME280;25372;50.582;12.250;2023-08-30T04:48:35;98992.75;;;12.59;100.00
39699;BME280;25372;50.582;12.250;2023-08-30T04:58:59;99004.56;;;12.65;100.00
39699;BME280;25372;50.582;12.250;2023-08-30T05:09:24;99019.94;;;12.59;100.00
39699;BME280;25372;50.582;12.250;2023-08-30T05:19:46;99030.50;;;12.69;100.00
39699;BME280;25372;50.582;12.250;2023-08-30T05:30:09;99010.66;;;12.96;100.00
39699;BME280;25372;50.582;12.250;2023-08-30T05:40:34;99015.00;;;13.07;99.33
39699;BME280;25372;50.582;12.250;2023-08-30T05:50:56;99021.41;;;13.14;97.86
39699;BME280;25372;50.582;12.250;2023-08-30T06:01:19;99014.09;;;13.28;97.20
39699;BME280;25372;50.582;12.250;2023-08-30T06:11:39;99007.88;;;13.39;96.37
39699;BME280;25372;50.582;12.250;2023-08-30T06:22:02;99014.72;;;13.71;93.61
39699;BME280;25372;50.582;12.250;2023-08-30T06:32:22;99009.88;;;13.96;93.08
39699;BME280;25372;50.582;12.250;2023-08-30T06:42:45;99015.16;;;14.06;93.06
39699;BME280;25372;50.582;12.250;2023-08-30T06:53:06;99019.00;;;14.31;91.56
39699;BME280;25372;50.582;12.250;2023-08-30T07:03:30;99020.63;;;14.52;91.75
39699;BME280;25372;50.582;12.250;2023-08-30T07:13:51;99010.44;;;14.67;87.89
39699;BME280;25372;50.582;12.250;2023-08-30T07:24:13;99019.94;;;14.98;86.74
39699;BME280;25372;50.582;12.250;2023-08-30T07:34:33;99011.63;;;15.20;84.34
39699;BME280;25372;50.582;12.250;2023-08-30T07:44:55;99033.53;;;15.03;83.66
39699;BME280;25372;50.582;12.250;2023-08-30T07:55:16;99027.59;;;15.29;85.48
39699;BME280;25372;50.582;12.250;2023-08-30T08:05:38;99032.84;;;15.57;82.75
39699;BME280;25372;50.582;12.250;2023-08-30T08:15:59;99032.88;;;15.29;80.17
39699;BME280;25372;50.582;12.250;2023-08-30T08:26:21;99023.66;;;15.97;78.16
39699;BME280;25372;50.582;12.250;2023-08-30T08:36:42;99011.53;;;16.39;76.75
39699;BME280;25372;50.582;12.250;2023-08-30T08:47:04;99003.38;;;16.85;76.68
39699;BME280;25372;50.582;12.250;2023-08-30T08:57:26;98988.63;;;17.34;74.06
39699;BME280;25372;50.582;12.250;2023-08-30T09:07:50;98996.47;;;17.44;74.56
39699;BME280;25372;50.582;12.250;2023-08-30T09:18:16;98990.75;;;18.07;70.97
39699;BME280;25372;50.582;12.250;2023-08-30T09:28:42;98984.72;;;17.96;69.64
39699;BME280;25372;50.582;12.250;2023-08-30T09:39:04;98988.75;;;18.09;70.63
39699;BME280;25372;50.582;12.250;2023-08-30T09:49:26;99002.13;;;18.49;69.12
39699;BME280;25372;50.582;12.250;2023-08-30T09:59:48;98990.63;;;18.65;65.15
39699;BME280;25372;50.582;12.250;2023-08-30T10:10:11;98984.47;;;19.12;66.50
39699;BME280;25372;50.582;12.250;2023-08-30T10:20:32;98977.72;;;18.93;63.75
39699;BME280;25372;50.582;12.250;2023-08-30T10:30:54;98975.03;;;19.65;63.30
39699;BME280;25372;50.582;12.250;2023-08-30T10:41:19;98983.56;;;18.89;63.13
39699;BME280;25372;50.582;12.250;2023-08-30T10:51:42;98994.47;;;19.65;61.12
39699;BME280;25372;50.582;12.250;2023-08-30T11:02:04;98994.69;;;19.64;62.79
39699;BME280;25372;50.582;12.250;2023-08-30T11:12:27;98979.25;;;20.21;59.48
39699;BME280;25372;50.582;12.250;2023-08-30T11:22:49;98981.59;;;20.69;58.21
39699;BME280;25372;50.582;12.250;2023-08-30T11:33:12;98971.69;;;20.09;59.82
39699;BME280;25372;50.582;12.250;2023-08-30T11:43:33;98970.13;;;19.53;60.86
39699;BME280;25372;50.582;12.250;2023-08-30T11:53:56;98961.53;;;19.43;59.31
39699;BME280;25372;50.582;12.250;2023-08-30T12:04:16;98952.25;;;18.59;63.54
39699;BME280;25372;50.582;12.250;2023-08-30T12:14:39;98936.97;;;18.61;62.38
39699;BME280;25372;50.582;12.250;2023-08-30T12:25:00;98933.97;;;20.36;57.24
39699;BME280;25372;50.582;12.250;2023-08-30T12:35:23;98915.28;;;19.82;56.28
39699;BME280;25372;50.582;12.250;2023-08-30T12:45:44;98926.75;;;18.81;60.00
39699;BME280;25372;50.582;12.250;2023-08-30T12:56:06;98924.38;;;18.95;59.18
39699;BME280;25372;50.582;12.250;2023-08-30T13:06:27;98926.44;;;19.16;61.34
39699;BME280;25372;50.582;12.250;2023-08-30T13:16:49;98901.28;;;20.94;51.06
39699;BME280;25372;50.582;12.250;2023-08-30T13:27:10;98905.16;;;20.01;55.67
39699;BME280;25372;50.582;12.250;2023-08-30T13:37:32;98893.59;;;20.24;54.84
39699;BME280;25372;50.582;12.250;2023-08-30T13:47:53;98888.56;;;19.76;56.93
39699;BME280;25372;50.582;12.250;2023-08-30T13:58:15;98874.03;;;19.40;59.21
39699;BME280;25372;50.582;12.250;2023-08-30T14:08:36;98870.63;;;20.23;55.49
39699;BME280;25372;50.582;12.250;2023-08-30T14:18:58;98868.00;;;21.33;52.69
39699;BME280;25372;50.582;12.250;2023-08-30T14:29:20;98862.75;;;22.32;50.29
39699;BME280;25372;50.582;12.250;2023-08-30T14:39:42;98859.66;;;21.93;47.49
39699;BME280;25372;50.582;12.250;2023-08-30T14:50:03;98865.03;;;21.21;51.98
39699;BME280;25372;50.582;12.250;2023-08-30T15:00:26;98860.47;;;19.88;55.15
39699;BME280;25372;50.582;12.250;2023-08-30T15:10:46;98858.84;;;19.49;56.41
39699;BME280;25372;50.582;12.250;2023-08-30T15:21:09;98871.47;;;19.47;57.87
39699;BME280;25372;50.582;12.250;2023-08-30T15:31:29;98872.66;;;19.67;57.46
39699;BME280;25372;50.582;12.250;2023-08-30T15:41:51;98870.00;;;20.73;54.65
39699;BME280;25372;50.582;12.250;2023-08-30T15:52:12;98878.03;;;21.09;52.39
39699;BME280;25372;50.582;12.250;2023-08-30T16:02:34;98877.53;;;19.40;57.15
39699;BME280;25372;50.582;12.250;2023-08-30T16:12:55;98873.75;;;18.80;60.27
39699;BME280;25372;50.582;12.250;2023-08-30T16:23:17;98873.03;;;18.54;63.91
39699;BME280;25372;50.582;12.250;2023-08-30T16:33:39;98872.34;;;18.12;71.70
39699;BME280;25372;50.582;12.250;2023-08-30T16:44:01;98873.06;;;17.81;71.50
39699;BME280;25372;50.582;12.250;2023-08-30T16:54:22;98883.84;;;17.46;75.41
39699;BME280;25372;50.582;12.250;2023-08-30T17:04:45;98871.88;;;17.09;80.42
39699;BME280;25372;50.582;12.250;2023-08-30T17:15:06;98875.91;;;16.70;81.78
39699;BME280;25372;50.582;12.250;2023-08-30T17:25:28;98873.97;;;16.38;84.93
39699;BME280;25372;50.582;12.250;2023-08-30T17:35:52;98883.03;;;16.00;85.31
39699;BME280;25372;50.582;12.250;2023-08-30T17:46:14;98892.78;;;15.55;87.75
39699;BME280;25372;50.582;12.250;2023-08-30T17:56:35;98888.47;;;15.18;88.21
39699;BME280;25372;50.582;12.250;2023-08-30T18:06:57;98896.06;;;14.57;89.18
39699;BME280;25372;50.582;12.250;2023-08-30T18:17:19;98907.59;;;14.18;91.61
39699;BME280;25372;50.582;12.250;2023-08-30T18:27:41;98894.03;;;14.03;90.32
39699;BME280;25372;50.582;12.250;2023-08-30T18:38:03;98896.66;;;14.03;90.25
39699;BME280;25372;50.582;12.250;2023-08-30T18:48:25;98899.84;;;14.06;86.81
39699;BME280;25372;50.582;12.250;2023-08-30T18:58:47;98910.66;;;14.03;88.58
39699;BME280;25372;50.582;12.250;2023-08-30T19:09:09;98909.72;;;13.94;88.29
39699;BME280;25372;50.582;12.250;2023-08-30T19:19:30;98906.97;;;13.86;87.47
39699;BME280;25372;50.582;12.250;2023-08-30T19:29:52;98910.72;;;13.83;86.53
39699;BME280;25372;50.582;12.250;2023-08-30T19:40:13;98916.69;;;13.86;87.62
39699;BME280;25372;50.582;12.250;2023-08-30T19:50:35;98919.06;;;13.59;87.54
39699;BME280;25372;50.582;12.250;2023-08-30T20:01:02;98918.81;;;13.72;89.34
39699;BME280;25372;50.582;12.250;2023-08-30T20:11:24;98929.19;;;13.74;87.52
39699;BME280;25372;50.582;12.250;2023-08-30T20:21:46;98916.56;;;13.77;87.42
39699;BME280;25372;50.582;12.250;2023-08-30T20:32:08;98913.47;;;13.92;85.89
39699;BME280;25372;50.582;12.250;2023-08-30T20:42:29;98913.91;;;13.87;84.53
39699;BME280;25372;50.582;12.250;2023-08-30T20:52:52;98900.84;;;13.76;85.17
39699;BME280;25372;50.582;12.250;2023-08-30T21:03:19;98913.66;;;13.70;84.23
39699;BME280;25372;50.582;12.250;2023-08-30T21:13:41;98924.59;;;13.76;87.78
39699;BME280;25372;50.582;12.250;2023-08-30T21:24:03;98921.13;;;13.65;88.21
39699;BME280;25372;50.582;12.250;2023-08-30T21:34:29;98926.00;;;13.70;86.66
39699;BME280;25372;50.582;12.250;2023-08-30T21:44:50;98915.19;;;13.63;86.04
39699;BME280;25372;50.582;12.250;2023-08-30T21:55:12;98911.28;;;13.77;84.50
39699;BME280;25372;50.582;12.250;2023-08-30T22:05:33;98895.47;;;13.48;86.25
39699;BME280;25372;50.582;12.250;2023-08-30T22:15:56;98899.75;;;13.19;88.79
39699;BME280;25372;50.582;12.250;2023-08-30T22:26:17;98902.13;;;12.71;89.46
39699;BME280;25372;50.582;12.250;2023-08-30T22:36:39;98897.38;;;13.06;84.43
39699;BME280;25372;50.582;12.250;2023-08-30T22:47:01;98902.78;;;13.14;85.38
39699;BME280;25372;50.582;12.250;2023-08-30T22:57:23;98892.63;;;12.90;85.05
39699;BME280;25372;50.582;12.250;2023-08-30T23:07:47;98884.06;;;13.18;85.29
39699;BME280;25372;50.582;12.250;2023-08-30T23:18:09;98876.03;;;13.29;87.02
39699;BME280;25372;50.582;12.250;2023-08-30T23:28:29;98862.84;;;13.39;87.99
39699;BME280;25372;50.582;12.250;2023-08-30T23:38:52;98863.66;;;13.39;90.33
39699;BME280;25372;50.582;12.250;2023-08-30T23:49:15;98874.09;;;13.41;87.99
39699;BME280;25372;50.582;12.250;2023-08-30T23:59:37;98881.03;;;13.52;89.45
